Aviation Digital Data Service (ADDS)

Output produced by METARs form (0951 UTC 07 December 2022)
found at http://aviationweather.gov/metar/data/
 
METAR text: KPGV 070935Z AUTO 00000KT 7SM OVC025 16/16 A3026 RMK AO2
Conditions at: KPGV (PITT GREENVILLE , NC, US) observed 0935 UTC 07 December 2022
Temperature: 16.0°C (61°F)
Dewpoint: 16.0°C (61°F) [RH = 100%]
Pressure (altimeter): 30.26 inches Hg (1024.8 mb)
Winds: calm
Visibility: 7 miles (11 km)
Ceiling: 2500 feet AGL
Clouds: overcast cloud deck at 2500 feet AGL
Weather: automated observation with no human augmentation;
there may or may not be significant weather present at this time

METAR text: KPGV 070915Z AUTO 00000KT 7SM OVC027 16/16 A3026 RMK AO2
Conditions at: KPGV (PITT GREENVILLE , NC, US) observed 0915 UTC 07 December 2022
Temperature: 16.0°C (61°F)
Dewpoint: 16.0°C (61°F) [RH = 100%]
Pressure (altimeter): 30.26 inches Hg (1024.8 mb)
Winds: calm
Visibility: 7 miles (11 km)
Ceiling: 2700 feet AGL
Clouds: overcast cloud deck at 2700 feet AGL
Weather: automated observation with no human augmentation;
there may or may not be significant weather present at this time

METAR text: KPGV 070855Z AUTO 00000KT 7SM OVC029 16/16 A3026 RMK AO2
Conditions at: KPGV (PITT GREENVILLE , NC, US) observed 0855 UTC 07 December 2022
Temperature: 16.0°C (61°F)
Dewpoint: 16.0°C (61°F) [RH = 100%]
Pressure (altimeter): 30.26 inches Hg (1024.8 mb)
Winds: calm
Visibility: 7 miles (11 km)
Ceiling: 2900 feet AGL
Clouds: overcast cloud deck at 2900 feet AGL
Weather: automated observation with no human augmentation;
there may or may not be significant weather present at this time

METAR text: KPGV 070835Z AUTO 00000KT 5SM BR BKN033 OVC070 16/16 A3026 RMK AO2
Conditions at: KPGV (PITT GREENVILLE , NC, US) observed 0835 UTC 07 December 2022
Temperature: 16.0°C (61°F)
Dewpoint: 16.0°C (61°F) [RH = 100%]
Pressure (altimeter): 30.26 inches Hg (1024.8 mb)
Winds: calm
Visibility: 5 miles ( 8 km)
Ceiling: 3300 feet AGL
Clouds: broken clouds at 3300 feet AGL
overcast cloud deck at 7000 feet AGL
Weather: BR  (mist)

METAR text: KPGV 070815Z AUTO 00000KT 4SM BR OVC070 16/16 A3026 RMK AO2
Conditions at: KPGV (PITT GREENVILLE , NC, US) observed 0815 UTC 07 December 2022
Temperature: 16.0°C (61°F)
Dewpoint: 16.0°C (61°F) [RH = 100%]
Pressure (altimeter): 30.26 inches Hg (1024.8 mb)
Winds: calm
Visibility: 4 miles ( 6 km)
Ceiling: 7000 feet AGL
Clouds: overcast cloud deck at 7000 feet AGL
Weather: BR  (mist)

METAR text: KPGV 070755Z AUTO 00000KT 3SM BR BKN070 OVC090 16/16 A3026 RMK AO2
Conditions at: KPGV (PITT GREENVILLE , NC, US) observed 0755 UTC 07 December 2022
Temperature: 16.0°C (61°F)
Dewpoint: 16.0°C (61°F) [RH = 100%]
Pressure (altimeter): 30.26 inches Hg (1024.8 mb)
Winds: calm
Visibility: 3 miles ( 5 km)
Ceiling: 7000 feet AGL
Clouds: broken clouds at 7000 feet AGL
overcast cloud deck at 9000 feet AGL
Weather: BR  (mist)

Forecast for: KPGV (PITT GREENVILLE , NC, US)
Text: KPGV 070546Z 0706/0806 VRB03KT P6SM BKN040
Forecast period: 0600 to 0900 UTC 07 December 2022
Forecast type: FROM: standard forecast or significant change
Winds: variable direction winds at 3 MPH (3 knots; 1.5 m/s)
Visibility: 6 or more miles (10+ km)
Ceiling: 4000 feet AGL
Clouds: broken clouds at 4000 feet AGL
Weather: no significant weather forecast for this period
Text: TEMPO 0706/0709 BKN005
Forecast period: 0600 to 0900 UTC 07 December 2022
Forecast type: TEMPORARY: The following changes expected for less than half the time period
Visibility: missing
Ceiling: 500 feet AGL
Clouds: broken clouds at 500 feet AGL
Weather: no significant weather forecast for this period
Text: FM070900 00000KT 1/2SM FG OVC003
Forecast period: 0900 to 1200 UTC 07 December 2022
Forecast type: FROM: standard forecast or significant change
Winds: calm
Visibility: 0.50 miles (0.80 km)
Ceiling: 300 feet AGL
Clouds: overcast cloud deck at 300 feet AGL
Weather: FG  (fog)
Text: FM071200 00000KT 1/2SM FG OVC006
Forecast period: 1200 to 1330 UTC 07 December 2022
Forecast type: FROM: standard forecast or significant change
Winds: calm
Visibility: 0.50 miles (0.80 km)
Ceiling: 600 feet AGL
Clouds: overcast cloud deck at 600 feet AGL
Weather: FG  (fog)
Text: FM071330 00000KT 2SM BR BKN008
Forecast period: 1330 to 1530 UTC 07 December 2022
Forecast type: FROM: standard forecast or significant change
Winds: calm
Visibility: 2.00 miles (3.22 km)
Ceiling: 800 feet AGL
Clouds: broken clouds at 800 feet AGL
Weather: BR  (mist)
Text: FM071530 22005KT P6SM BKN016 AMD LTD TO CLD VIS AND WIND
Forecast period: 1530 UTC 07 December 2022 to 0600 UTC 08 December 2022
Forecast type: FROM: standard forecast or significant change
Winds: from the SW (220 degrees) at 6 MPH (5 knots; 2.6 m/s)
Visibility: 6 or more miles (10+ km)
Ceiling: 1600 feet AGL
Clouds: broken clouds at 1600 feet AGL
Weather: no significant weather forecast for this period